sensor_id;sensor_type;location;lat;lon;timestamp;P1;durP1;ratioP1;P2;durP2;ratioP2
30553;SDS011;17335;50.720;7.452;2023-07-20T00:01:27;11.00;;;2.97;;
30553;SDS011;17335;50.720;7.452;2023-07-20T00:03:54;9.25;;;3.55;;
30553;SDS011;17335;50.720;7.452;2023-07-20T00:06:24;15.00;;;3.78;;
30553;SDS011;17335;50.720;7.452;2023-07-20T00:08:56;5.47;;;3.42;;
30553;SDS011;17335;50.720;7.452;2023-07-20T00:11:26;7.03;;;2.97;;
30553;SDS011;17335;50.720;7.452;2023-07-20T00:13:53;6.10;;;3.30;;
30553;SDS011;17335;50.720;7.452;2023-07-20T00:16:20;6.18;;;3.30;;
30553;SDS011;17335;50.720;7.452;2023-07-20T00:18:47;11.93;;;3.65;;
30553;SDS011;17335;50.720;7.452;2023-07-20T00:21:14;6.10;;;2.75;;
30553;SDS011;17335;50.720;7.452;2023-07-20T00:23:40;9.18;;;3.13;;
30553;SDS011;17335;50.720;7.452;2023-07-20T00:26:06;8.63;;;3.47;;
30553;SDS011;17335;50.720;7.452;2023-07-20T00:28:33;8.95;;;3.10;;
30553;SDS011;17335;50.720;7.452;2023-07-20T00:30:59;5.25;;;3.13;;
30553;SDS011;17335;50.720;7.452;2023-07-20T00:33:26;7.32;;;3.13;;
30553;SDS011;17335;50.720;7.452;2023-07-20T00:35:53;6.30;;;3.20;;
30553;SDS011;17335;50.720;7.452;2023-07-20T00:38:19;9.18;;;3.40;;
30553;SDS011;17335;50.720;7.452;2023-07-20T00:40:46;5.70;;;3.05;;
30553;SDS011;17335;50.720;7.452;2023-07-20T00:43:14;8.23;;;4.22;;
30553;SDS011;17335;50.720;7.452;2023-07-20T00:45:41;8.98;;;3.50;;
30553;SDS011;17335;50.720;7.452;2023-07-20T00:48:08;5.43;;;3.35;;
30553;SDS011;17335;50.720;7.452;2023-07-20T00:50:35;6.65;;;3.03;;
30553;SDS011;17335;50.720;7.452;2023-07-20T00:53:02;9.07;;;3.50;;
30553;SDS011;17335;50.720;7.452;2023-07-20T00:55:31;8.40;;;3.13;;
30553;SDS011;17335;50.720;7.452;2023-07-20T00:57:58;8.85;;;3.30;;
30553;SDS011;17335;50.720;7.452;2023-07-20T01:00:25;11.07;;;4.38;;
30553;SDS011;17335;50.720;7.452;2023-07-20T01:02:52;10.02;;;3.85;;
30553;SDS011;17335;50.720;7.452;2023-07-20T01:05:18;9.38;;;4.05;;
30553;SDS011;17335;50.720;7.452;2023-07-20T01:07:47;10.40;;;4.00;;
30553;SDS011;17335;50.720;7.452;2023-07-20T01:10:29;8.20;;;3.85;;
30553;SDS011;17335;50.720;7.452;2023-07-20T01:13:02;8.30;;;4.15;;
30553;SDS011;17335;50.720;7.452;2023-07-20T01:15:35;8.13;;;4.03;;
30553;SDS011;17335;50.720;7.452;2023-07-20T01:18:02;8.93;;;3.85;;
30553;SDS011;17335;50.720;7.452;2023-07-20T01:20:30;9.55;;;4.05;;
30553;SDS011;17335;50.720;7.452;2023-07-20T01:31:23;6.47;;;3.33;;
30553;SDS011;17335;50.720;7.452;2023-07-20T01:33:54;6.93;;;3.17;;
30553;SDS011;17335;50.720;7.452;2023-07-20T01:36:24;9.20;;;3.05;;
30553;SDS011;17335;50.720;7.452;2023-07-20T01:38:52;8.20;;;3.70;;
30553;SDS011;17335;50.720;7.452;2023-07-20T01:41:19;8.52;;;3.53;;
30553;SDS011;17335;50.720;7.452;2023-07-20T01:43:46;7.32;;;3.75;;
30553;SDS011;17335;50.720;7.452;2023-07-20T01:46:13;7.18;;;3.70;;
30553;SDS011;17335;50.720;7.452;2023-07-20T01:48:39;7.03;;;3.08;;
30553;SDS011;17335;50.720;7.452;2023-07-20T01:51:06;12.07;;;4.07;;
30553;SDS011;17335;50.720;7.452;2023-07-20T01:53:33;7.03;;;3.65;;
30553;SDS011;17335;50.720;7.452;2023-07-20T01:55:59;10.60;;;3.67;;
30553;SDS011;17335;50.720;7.452;2023-07-20T01:58:25;6.93;;;3.08;;
30553;SDS011;17335;50.720;7.452;2023-07-20T02:00:52;8.50;;;3.58;;
30553;SDS011;17335;50.720;7.452;2023-07-20T02:03:18;5.95;;;3.50;;
30553;SDS011;17335;50.720;7.452;2023-07-20T02:05:47;6.88;;;3.15;;
30553;SDS011;17335;50.720;7.452;2023-07-20T02:08:14;8.73;;;3.67;;
30553;SDS011;17335;50.720;7.452;2023-07-20T02:10:42;7.97;;;3.33;;
30553;SDS011;17335;50.720;7.452;2023-07-20T02:13:11;10.10;;;3.30;;
30553;SDS011;17335;50.720;7.452;2023-07-20T02:15:38;9.02;;;3.95;;
30553;SDS011;17335;50.720;7.452;2023-07-20T02:18:04;7.28;;;3.30;;
30553;SDS011;17335;50.720;7.452;2023-07-20T02:20:31;8.18;;;3.55;;
30553;SDS011;17335;50.720;7.452;2023-07-20T02:22:57;8.35;;;3.30;;
30553;SDS011;17335;50.720;7.452;2023-07-20T02:25:24;7.78;;;3.35;;
30553;SDS011;17335;50.720;7.452;2023-07-20T02:27:50;6.80;;;2.85;;
30553;SDS011;17335;50.720;7.452;2023-07-20T02:30:16;6.68;;;2.88;;
30553;SDS011;17335;50.720;7.452;2023-07-20T02:32:43;7.50;;;3.28;;
30553;SDS011;17335;50.720;7.452;2023-07-20T02:35:15;7.45;;;3.13;;
30553;SDS011;17335;50.720;7.452;2023-07-20T02:37:43;8.48;;;3.42;;
30553;SDS011;17335;50.720;7.452;2023-07-20T02:40:10;6.60;;;2.97;;
30553;SDS011;17335;50.720;7.452;2023-07-20T02:42:37;7.43;;;3.17;;
30553;SDS011;17335;50.720;7.452;2023-07-20T02:45:04;7.68;;;3.45;;
30553;SDS011;17335;50.720;7.452;2023-07-20T02:47:31;5.80;;;2.97;;
30553;SDS011;17335;50.720;7.452;2023-07-20T02:49:58;6.93;;;2.85;;
30553;SDS011;17335;50.720;7.452;2023-07-20T02:52:24;6.60;;;2.88;;
30553;SDS011;17335;50.720;7.452;2023-07-20T02:54:50;8.10;;;3.17;;
30553;SDS011;17335;50.720;7.452;2023-07-20T02:57:17;4.97;;;2.70;;
30553;SDS011;17335;50.720;7.452;2023-07-20T02:59:43;6.38;;;3.17;;
30553;SDS011;17335;50.720;7.452;2023-07-20T03:02:10;6.07;;;3.00;;
30553;SDS011;17335;50.720;7.452;2023-07-20T03:04:36;11.27;;;3.08;;
30553;SDS011;17335;50.720;7.452;2023-07-20T03:07:04;6.13;;;2.78;;
30553;SDS011;17335;50.720;7.452;2023-07-20T03:09:31;5.63;;;3.00;;
30553;SDS011;17335;50.720;7.452;2023-07-20T03:11:57;6.72;;;3.13;;
30553;SDS011;17335;50.720;7.452;2023-07-20T03:14:24;8.63;;;3.08;;
30553;SDS011;17335;50.720;7.452;2023-07-20T03:16:50;7.57;;;2.80;;
30553;SDS011;17335;50.720;7.452;2023-07-20T03:19:17;5.18;;;2.67;;
30553;SDS011;17335;50.720;7.452;2023-07-20T03:21:43;7.70;;;3.13;;
30553;SDS011;17335;50.720;7.452;2023-07-20T03:24:10;6.65;;;3.10;;
30553;SDS011;17335;50.720;7.452;2023-07-20T03:26:36;6.70;;;2.85;;
30553;SDS011;17335;50.720;7.452;2023-07-20T03:29:03;5.13;;;3.05;;
30553;SDS011;17335;50.720;7.452;2023-07-20T03:31:30;7.22;;;3.30;;
30553;SDS011;17335;50.720;7.452;2023-07-20T03:33:57;7.97;;;3.17;;
30553;SDS011;17335;50.720;7.452;2023-07-20T03:36:23;7.38;;;3.50;;
30553;SDS011;17335;50.720;7.452;2023-07-20T03:38:50;6.57;;;3.22;;
30553;SDS011;17335;50.720;7.452;2023-07-20T03:41:17;7.72;;;2.60;;
30553;SDS011;17335;50.720;7.452;2023-07-20T03:43:43;5.63;;;2.80;;
30553;SDS011;17335;50.720;7.452;2023-07-20T03:46:09;9.45;;;3.65;;
30553;SDS011;17335;50.720;7.452;2023-07-20T03:48:36;6.13;;;2.63;;
30553;SDS011;17335;50.720;7.452;2023-07-20T03:51:02;8.40;;;3.15;;
30553;SDS011;17335;50.720;7.452;2023-07-20T03:53:29;5.72;;;2.95;;
30553;SDS011;17335;50.720;7.452;2023-07-20T03:55:55;5.13;;;2.75;;
30553;SDS011;17335;50.720;7.452;2023-07-20T03:58:22;7.20;;;2.70;;
30553;SDS011;17335;50.720;7.452;2023-07-20T04:00:49;5.93;;;2.63;;
30553;SDS011;17335;50.720;7.452;2023-07-20T04:03:17;9.52;;;3.10;;
30553;SDS011;17335;50.720;7.452;2023-07-20T04:05:49;6.88;;;3.42;;
30553;SDS011;17335;50.720;7.452;2023-07-20T04:08:15;6.15;;;2.70;;
30553;SDS011;17335;50.720;7.452;2023-07-20T04:10:44;5.85;;;2.58;;
30553;SDS011;17335;50.720;7.452;2023-07-20T04:13:11;7.22;;;3.17;;
30553;SDS011;17335;50.720;7.452;2023-07-20T04:15:38;7.03;;;3.00;;
30553;SDS011;17335;50.720;7.452;2023-07-20T04:18:04;6.10;;;2.83;;
30553;SDS011;17335;50.720;7.452;2023-07-20T04:20:31;6.65;;;3.35;;
30553;SDS011;17335;50.720;7.452;2023-07-20T04:22:57;7.50;;;3.33;;
30553;SDS011;17335;50.720;7.452;2023-07-20T04:25:24;6.82;;;2.90;;
30553;SDS011;17335;50.720;7.452;2023-07-20T04:27:50;9.70;;;3.35;;
30553;SDS011;17335;50.720;7.452;2023-07-20T04:30:18;9.38;;;3.15;;
30553;SDS011;17335;50.720;7.452;2023-07-20T04:32:49;6.40;;;2.92;;
30553;SDS011;17335;50.720;7.452;2023-07-20T04:35:44;7.93;;;3.58;;
30553;SDS011;17335;50.720;7.452;2023-07-20T04:38:12;6.88;;;3.22;;
30553;SDS011;17335;50.720;7.452;2023-07-20T04:40:38;6.35;;;3.38;;
30553;SDS011;17335;50.720;7.452;2023-07-20T04:43:05;5.63;;;3.15;;
30553;SDS011;17335;50.720;7.452;2023-07-20T04:45:32;6.95;;;2.70;;
30553;SDS011;17335;50.720;7.452;2023-07-20T04:47:58;10.93;;;2.90;;
30553;SDS011;17335;50.720;7.452;2023-07-20T04:50:24;6.32;;;2.67;;
30553;SDS011;17335;50.720;7.452;2023-07-20T04:52:51;6.70;;;2.75;;
30553;SDS011;17335;50.720;7.452;2023-07-20T04:55:18;6.93;;;2.67;;
30553;SDS011;17335;50.720;7.452;2023-07-20T04:57:45;10.27;;;3.03;;
30553;SDS011;17335;50.720;7.452;2023-07-20T05:00:11;6.18;;;2.88;;
30553;SDS011;17335;50.720;7.452;2023-07-20T05:02:39;5.70;;;2.60;;
30553;SDS011;17335;50.720;7.452;2023-07-20T05:05:05;6.15;;;2.53;;
30553;SDS011;17335;50.720;7.452;2023-07-20T05:07:32;6.57;;;2.83;;
30553;SDS011;17335;50.720;7.452;2023-07-20T05:09:59;6.65;;;2.85;;
30553;SDS011;17335;50.720;7.452;2023-07-20T05:12:25;5.18;;;2.80;;
30553;SDS011;17335;50.720;7.452;2023-07-20T05:14:52;9.80;;;3.35;;
30553;SDS011;17335;50.720;7.452;2023-07-20T05:17:18;7.38;;;2.65;;
30553;SDS011;17335;50.720;7.452;2023-07-20T05:19:45;8.10;;;2.90;;
30553;SDS011;17335;50.720;7.452;2023-07-20T05:22:13;4.55;;;2.55;;
30553;SDS011;17335;50.720;7.452;2023-07-20T05:24:40;11.48;;;3.22;;
30553;SDS011;17335;50.720;7.452;2023-07-20T05:27:06;6.80;;;2.88;;
30553;SDS011;17335;50.720;7.452;2023-07-20T05:29:33;8.13;;;3.20;;
30553;SDS011;17335;50.720;7.452;2023-07-20T05:31:59;6.43;;;2.85;;
30553;SDS011;17335;50.720;7.452;2023-07-20T05:34:26;7.38;;;2.80;;
30553;SDS011;17335;50.720;7.452;2023-07-20T05:37:07;6.43;;;3.17;;
30553;SDS011;17335;50.720;7.452;2023-07-20T05:39:40;15.90;;;5.50;;
30553;SDS011;17335;50.720;7.452;2023-07-20T05:42:06;11.45;;;3.85;;
30553;SDS011;17335;50.720;7.452;2023-07-20T05:44:33;9.73;;;4.03;;
30553;SDS011;17335;50.720;7.452;2023-07-20T05:46:59;11.32;;;4.68;;
30553;SDS011;17335;50.720;7.452;2023-07-20T05:49:26;11.27;;;4.65;;
30553;SDS011;17335;50.720;7.452;2023-07-20T05:51:53;7.72;;;4.35;;
30553;SDS011;17335;50.720;7.452;2023-07-20T05:54:21;12.27;;;6.13;;
30553;SDS011;17335;50.720;7.452;2023-07-20T05:56:47;10.05;;;5.45;;
30553;SDS011;17335;50.720;7.452;2023-07-20T05:59:14;14.55;;;5.57;;
30553;SDS011;17335;50.720;7.452;2023-07-20T06:01:41;14.60;;;5.13;;
30553;SDS011;17335;50.720;7.452;2023-07-20T06:04:09;13.43;;;5.68;;
30553;SDS011;17335;50.720;7.452;2023-07-20T06:06:36;12.45;;;5.20;;
30553;SDS011;17335;50.720;7.452;2023-07-20T06:09:02;11.35;;;6.78;;
30553;SDS011;17335;50.720;7.452;2023-07-20T06:11:30;16.52;;;7.03;;
30553;SDS011;17335;50.720;7.452;2023-07-20T06:13:57;12.23;;;5.72;;
30553;SDS011;17335;50.720;7.452;2023-07-20T06:16:23;17.95;;;6.13;;
30553;SDS011;17335;50.720;7.452;2023-07-20T06:18:50;12.05;;;6.22;;
30553;SDS011;17335;50.720;7.452;2023-07-20T06:21:17;11.90;;;5.93;;
30553;SDS011;17335;50.720;7.452;2023-07-20T06:23:43;11.45;;;5.25;;
30553;SDS011;17335;50.720;7.452;2023-07-20T06:26:12;13.65;;;5.25;;
30553;SDS011;17335;50.720;7.452;2023-07-20T06:28:38;12.02;;;5.53;;
30553;SDS011;17335;50.720;7.452;2023-07-20T06:31:05;13.63;;;6.53;;
30553;SDS011;17335;50.720;7.452;2023-07-20T06:33:32;15.13;;;6.20;;
30553;SDS011;17335;50.720;7.452;2023-07-20T06:35:58;13.27;;;5.05;;
30553;SDS011;17335;50.720;7.452;2023-07-20T06:38:24;10.52;;;5.85;;
30553;SDS011;17335;50.720;7.452;2023-07-20T06:40:54;13.68;;;5.45;;
30553;SDS011;17335;50.720;7.452;2023-07-20T06:43:20;10.07;;;4.97;;
30553;SDS011;17335;50.720;7.452;2023-07-20T06:45:53;11.20;;;5.07;;
30553;SDS011;17335;50.720;7.452;2023-07-20T06:48:20;12.75;;;5.70;;
30553;SDS011;17335;50.720;7.452;2023-07-20T06:50:47;6.95;;;4.18;;
30553;SDS011;17335;50.720;7.452;2023-07-20T06:53:14;8.75;;;4.28;;
30553;SDS011;17335;50.720;7.452;2023-07-20T06:55:41;9.43;;;4.95;;
30553;SDS011;17335;50.720;7.452;2023-07-20T06:58:08;9.95;;;4.00;;
30553;SDS011;17335;50.720;7.452;2023-07-20T07:00:35;6.97;;;3.80;;
30553;SDS011;17335;50.720;7.452;2023-07-20T07:03:02;12.35;;;3.92;;
30553;SDS011;17335;50.720;7.452;2023-07-20T07:05:29;6.57;;;3.40;;
30553;SDS011;17335;50.720;7.452;2023-07-20T07:08:02;9.80;;;4.53;;
30553;SDS011;17335;50.720;7.452;2023-07-20T07:10:28;13.23;;;4.95;;
30553;SDS011;17335;50.720;7.452;2023-07-20T07:12:55;11.38;;;5.88;;
30553;SDS011;17335;50.720;7.452;2023-07-20T07:15:21;9.27;;;4.90;;
30553;SDS011;17335;50.720;7.452;2023-07-20T07:17:48;11.82;;;4.57;;
30553;SDS011;17335;50.720;7.452;2023-07-20T07:20:14;7.07;;;4.38;;
30553;SDS011;17335;50.720;7.452;2023-07-20T07:22:44;11.57;;;4.78;;
30553;SDS011;17335;50.720;7.452;2023-07-20T07:25:12;6.32;;;3.97;;
30553;SDS011;17335;50.720;7.452;2023-07-20T07:27:38;8.30;;;4.10;;
30553;SDS011;17335;50.720;7.452;2023-07-20T07:30:05;8.07;;;4.85;;
30553;SDS011;17335;50.720;7.452;2023-07-20T07:32:32;12.02;;;5.00;;
30553;SDS011;17335;50.720;7.452;2023-07-20T07:34:58;9.40;;;4.75;;
30553;SDS011;17335;50.720;7.452;2023-07-20T07:37:26;12.80;;;5.60;;
30553;SDS011;17335;50.720;7.452;2023-07-20T07:39:53;8.32;;;5.00;;
30553;SDS011;17335;50.720;7.452;2023-07-20T07:42:19;7.78;;;5.70;;
30553;SDS011;17335;50.720;7.452;2023-07-20T07:44:49;8.63;;;5.35;;
30553;SDS011;17335;50.720;7.452;2023-07-20T07:47:15;9.40;;;4.97;;
30553;SDS011;17335;50.720;7.452;2023-07-20T07:49:42;13.68;;;6.10;;
30553;SDS011;17335;50.720;7.452;2023-07-20T07:52:12;8.55;;;6.18;;
30553;SDS011;17335;50.720;7.452;2023-07-20T07:54:40;9.75;;;6.97;;
30553;SDS011;17335;50.720;7.452;2023-07-20T07:57:07;12.18;;;6.32;;
30553;SDS011;17335;50.720;7.452;2023-07-20T07:59:33;12.25;;;7.18;;
30553;SDS011;17335;50.720;7.452;2023-07-20T08:02:04;10.02;;;5.68;;
30553;SDS011;17335;50.720;7.452;2023-07-20T08:04:30;10.25;;;6.00;;
30553;SDS011;17335;50.720;7.452;2023-07-20T08:06:58;9.52;;;5.90;;
30553;SDS011;17335;50.720;7.452;2023-07-20T08:09:25;13.85;;;7.00;;
30553;SDS011;17335;50.720;7.452;2023-07-20T08:11:52;12.68;;;6.65;;
30553;SDS011;17335;50.720;7.452;2023-07-20T08:14:18;8.90;;;6.00;;
30553;SDS011;17335;50.720;7.452;2023-07-20T08:16:45;14.48;;;7.15;;
30553;SDS011;17335;50.720;7.452;2023-07-20T08:19:12;12.52;;;6.68;;
30553;SDS011;17335;50.720;7.452;2023-07-20T08:21:39;15.35;;;7.07;;
30553;SDS011;17335;50.720;7.452;2023-07-20T08:24:05;10.77;;;6.53;;
30553;SDS011;17335;50.720;7.452;2023-07-20T08:26:32;10.70;;;6.80;;
30553;SDS011;17335;50.720;7.452;2023-07-20T08:28:58;11.27;;;6.63;;
30553;SDS011;17335;50.720;7.452;2023-07-20T08:31:25;12.68;;;7.30;;
30553;SDS011;17335;50.720;7.452;2023-07-20T08:33:51;14.32;;;7.50;;
30553;SDS011;17335;50.720;7.452;2023-07-20T08:36:18;12.35;;;7.88;;
30553;SDS011;17335;50.720;7.452;2023-07-20T08:38:44;10.30;;;6.10;;
30553;SDS011;17335;50.720;7.452;2023-07-20T08:41:11;11.65;;;7.10;;
30553;SDS011;17335;50.720;7.452;2023-07-20T08:43:38;10.15;;;7.18;;
30553;SDS011;17335;50.720;7.452;2023-07-20T08:46:08;6.95;;;5.55;;
30553;SDS011;17335;50.720;7.452;2023-07-20T08:48:37;8.50;;;5.85;;
30553;SDS011;17335;50.720;7.452;2023-07-20T08:51:05;10.93;;;5.88;;
30553;SDS011;17335;50.720;7.452;2023-07-20T08:53:32;13.35;;;5.43;;
30553;SDS011;17335;50.720;7.452;2023-07-20T08:55:59;9.32;;;5.88;;
30553;SDS011;17335;50.720;7.452;2023-07-20T08:58:27;9.38;;;5.30;;
30553;SDS011;17335;50.720;7.452;2023-07-20T09:00:55;7.50;;;5.40;;
30553;SDS011;17335;50.720;7.452;2023-07-20T09:03:24;7.22;;;4.63;;
30553;SDS011;17335;50.720;7.452;2023-07-20T09:05:51;6.93;;;5.13;;
30553;SDS011;17335;50.720;7.452;2023-07-20T09:08:18;7.57;;;5.20;;
30553;SDS011;17335;50.720;7.452;2023-07-20T09:10:44;14.48;;;6.05;;
30553;SDS011;17335;50.720;7.452;2023-07-20T09:13:15;8.48;;;5.30;;
30553;SDS011;17335;50.720;7.452;2023-07-20T09:15:45;7.07;;;5.70;;
30553;SDS011;17335;50.720;7.452;2023-07-20T09:18:14;11.60;;;5.50;;
30553;SDS011;17335;50.720;7.452;2023-07-20T09:21:04;6.60;;;5.57;;
30553;SDS011;17335;50.720;7.452;2023-07-20T09:23:32;9.98;;;6.30;;
30553;SDS011;17335;50.720;7.452;2023-07-20T09:26:00;9.00;;;5.65;;
30553;SDS011;17335;50.720;7.452;2023-07-20T09:31:27;11.05;;;5.50;;
30553;SDS011;17335;50.720;7.452;2023-07-20T09:34:06;8.52;;;5.18;;
30553;SDS011;17335;50.720;7.452;2023-07-20T09:36:34;9.77;;;5.47;;
30553;SDS011;17335;50.720;7.452;2023-07-20T09:39:04;10.50;;;5.88;;
30553;SDS011;17335;50.720;7.452;2023-07-20T09:41:39;10.10;;;5.97;;
30553;SDS011;17335;50.720;7.452;2023-07-20T09:44:11;10.90;;;6.00;;
30553;SDS011;17335;50.720;7.452;2023-07-20T09:46:47;9.13;;;5.82;;
30553;SDS011;17335;50.720;7.452;2023-07-20T09:49:18;7.65;;;5.15;;
30553;SDS011;17335;50.720;7.452;2023-07-20T09:51:47;6.70;;;4.85;;
30553;SDS011;17335;50.720;7.452;2023-07-20T09:54:15;6.88;;;4.55;;
30553;SDS011;17335;50.720;7.452;2023-07-20T09:56:43;6.13;;;4.18;;
30553;SDS011;17335;50.720;7.452;2023-07-20T09:59:11;8.65;;;4.53;;
30553;SDS011;17335;50.720;7.452;2023-07-20T10:01:38;4.57;;;3.35;;
30553;SDS011;17335;50.720;7.452;2023-07-20T10:04:07;11.05;;;5.10;;
30553;SDS011;17335;50.720;7.452;2023-07-20T10:06:35;6.68;;;4.65;;
30553;SDS011;17335;50.720;7.452;2023-07-20T10:09:06;6.60;;;4.50;;
30553;SDS011;17335;50.720;7.452;2023-07-20T10:11:35;8.60;;;4.20;;
30553;SDS011;17335;50.720;7.452;2023-07-20T10:14:03;6.47;;;4.63;;
30553;SDS011;17335;50.720;7.452;2023-07-20T10:16:35;6.47;;;4.15;;
30553;SDS011;17335;50.720;7.452;2023-07-20T10:19:07;11.65;;;5.10;;
30553;SDS011;17335;50.720;7.452;2023-07-20T10:21:40;7.05;;;3.85;;
30553;SDS011;17335;50.720;7.452;2023-07-20T10:24:15;4.32;;;3.30;;
30553;SDS011;17335;50.720;7.452;2023-07-20T10:26:43;5.70;;;3.70;;
30553;SDS011;17335;50.720;7.452;2023-07-20T10:29:10;5.35;;;3.80;;
30553;SDS011;17335;50.720;7.452;2023-07-20T10:31:38;7.28;;;3.45;;
30553;SDS011;17335;50.720;7.452;2023-07-20T10:34:05;5.78;;;3.17;;
30553;SDS011;17335;50.720;7.452;2023-07-20T10:36:31;6.50;;;3.42;;
30553;SDS011;17335;50.720;7.452;2023-07-20T10:38:58;4.78;;;2.63;;
30553;SDS011;17335;50.720;7.452;2023-07-20T10:41:28;5.40;;;3.15;;
30553;SDS011;17335;50.720;7.452;2023-07-20T10:44:02;5.60;;;2.47;;
30553;SDS011;17335;50.720;7.452;2023-07-20T10:46:43;5.85;;;3.00;;
30553;SDS011;17335;50.720;7.452;2023-07-20T10:49:12;6.32;;;2.85;;
30553;SDS011;17335;50.720;7.452;2023-07-20T10:56:43;4.90;;;2.83;;
30553;SDS011;17335;50.720;7.452;2023-07-20T10:59:20;5.07;;;2.53;;
30553;SDS011;17335;50.720;7.452;2023-07-20T11:02:07;4.95;;;2.25;;
30553;SDS011;17335;50.720;7.452;2023-07-20T11:07:04;5.93;;;2.63;;
30553;SDS011;17335;50.720;7.452;2023-07-20T11:09:34;9.15;;;3.05;;
30553;SDS011;17335;50.720;7.452;2023-07-20T11:12:11;5.85;;;3.20;;
30553;SDS011;17335;50.720;7.452;2023-07-20T11:14:40;6.03;;;3.25;;
30553;SDS011;17335;50.720;7.452;2023-07-20T11:17:15;5.88;;;3.40;;
30553;SDS011;17335;50.720;7.452;2023-07-20T11:19:44;5.20;;;3.22;;
30553;SDS011;17335;50.720;7.452;2023-07-20T11:22:17;3.92;;;2.72;;
30553;SDS011;17335;50.720;7.452;2023-07-20T11:24:43;4.28;;;2.65;;
30553;SDS011;17335;50.720;7.452;2023-07-20T11:27:10;7.60;;;3.28;;
30553;SDS011;17335;50.720;7.452;2023-07-20T11:29:37;6.38;;;2.95;;
30553;SDS011;17335;50.720;7.452;2023-07-20T11:32:04;3.88;;;2.70;;
30553;SDS011;17335;50.720;7.452;2023-07-20T11:34:32;4.93;;;2.60;;
30553;SDS011;17335;50.720;7.452;2023-07-20T11:37:00;3.10;;;1.83;;
30553;SDS011;17335;50.720;7.452;2023-07-20T11:39:29;7.00;;;1.90;;
30553;SDS011;17335;50.720;7.452;2023-07-20T11:41:56;2.95;;;1.85;;
30553;SDS011;17335;50.720;7.452;2023-07-20T11:44:24;4.25;;;2.10;;
30553;SDS011;17335;50.720;7.452;2023-07-20T11:47:09;3.50;;;2.10;;
30553;SDS011;17335;50.720;7.452;2023-07-20T11:49:42;3.97;;;2.05;;
30553;SDS011;17335;50.720;7.452;2023-07-20T11:52:10;6.15;;;2.08;;
30553;SDS011;17335;50.720;7.452;2023-07-20T11:54:39;3.63;;;1.67;;
30553;SDS011;17335;50.720;7.452;2023-07-20T11:57:17;3.60;;;1.73;;
30553;SDS011;17335;50.720;7.452;2023-07-20T11:59:57;3.38;;;1.98;;
30553;SDS011;17335;50.720;7.452;2023-07-20T12:02:29;3.83;;;2.13;;
30553;SDS011;17335;50.720;7.452;2023-07-20T12:04:56;4.53;;;2.10;;
30553;SDS011;17335;50.720;7.452;2023-07-20T12:07:25;4.78;;;2.13;;
30553;SDS011;17335;50.720;7.452;2023-07-20T12:10:10;4.25;;;2.35;;
30553;SDS011;17335;50.720;7.452;2023-07-20T12:12:42;4.07;;;1.70;;
30553;SDS011;17335;50.720;7.452;2023-07-20T12:17:43;4.38;;;2.33;;
30553;SDS011;17335;50.720;7.452;2023-07-20T12:23:12;5.70;;;2.60;;
30553;SDS011;17335;50.720;7.452;2023-07-20T12:25:43;5.10;;;2.72;;
30553;SDS011;17335;50.720;7.452;2023-07-20T12:28:11;11.30;;;2.80;;
30553;SDS011;17335;50.720;7.452;2023-07-20T12:30:38;4.55;;;2.78;;
30553;SDS011;17335;50.720;7.452;2023-07-20T12:33:06;5.05;;;2.53;;
30553;SDS011;17335;50.720;7.452;2023-07-20T12:35:33;6.05;;;2.47;;
30553;SDS011;17335;50.720;7.452;2023-07-20T12:38:00;4.95;;;2.50;;
30553;SDS011;17335;50.720;7.452;2023-07-20T12:40:27;5.03;;;2.50;;
30553;SDS011;17335;50.720;7.452;2023-07-20T12:42:53;9.18;;;2.92;;
30553;SDS011;17335;50.720;7.452;2023-07-20T12:45:20;4.57;;;3.15;;
30553;SDS011;17335;50.720;7.452;2023-07-20T12:47:48;5.65;;;2.55;;
30553;SDS011;17335;50.720;7.452;2023-07-20T12:50:15;3.25;;;2.05;;
30553;SDS011;17335;50.720;7.452;2023-07-20T12:52:42;6.25;;;2.60;;
30553;SDS011;17335;50.720;7.452;2023-07-20T12:55:08;5.15;;;1.98;;
30553;SDS011;17335;50.720;7.452;2023-07-20T12:57:36;3.95;;;2.00;;
30553;SDS011;17335;50.720;7.452;2023-07-20T13:00:04;3.50;;;2.15;;
30553;SDS011;17335;50.720;7.452;2023-07-20T13:02:35;4.43;;;2.28;;
30553;SDS011;17335;50.720;7.452;2023-07-20T13:05:02;4.07;;;2.00;;
30553;SDS011;17335;50.720;7.452;2023-07-20T13:07:30;4.57;;;2.40;;
30553;SDS011;17335;50.720;7.452;2023-07-20T13:10:01;7.40;;;2.15;;
30553;SDS011;17335;50.720;7.452;2023-07-20T13:12:28;4.25;;;1.85;;
30553;SDS011;17335;50.720;7.452;2023-07-20T13:14:56;2.60;;;1.65;;
30553;SDS011;17335;50.720;7.452;2023-07-20T13:17:23;3.45;;;1.90;;
30553;SDS011;17335;50.720;7.452;2023-07-20T13:19:49;3.63;;;1.85;;
30553;SDS011;17335;50.720;7.452;2023-07-20T13:22:16;4.80;;;1.92;;
30553;SDS011;17335;50.720;7.452;2023-07-20T13:24:44;3.28;;;1.98;;
30553;SDS011;17335;50.720;7.452;2023-07-20T13:27:20;6.05;;;1.88;;
30553;SDS011;17335;50.720;7.452;2023-07-20T13:29:47;4.72;;;1.92;;
30553;SDS011;17335;50.720;7.452;2023-07-20T13:32:14;3.25;;;1.88;;
30553;SDS011;17335;50.720;7.452;2023-07-20T13:34:41;4.05;;;1.90;;
30553;SDS011;17335;50.720;7.452;2023-07-20T13:37:08;3.63;;;1.80;;
30553;SDS011;17335;50.720;7.452;2023-07-20T13:39:38;8.52;;;2.10;;
30553;SDS011;17335;50.720;7.452;2023-07-20T13:42:05;4.20;;;1.52;;
30553;SDS011;17335;50.720;7.452;2023-07-20T13:44:32;8.30;;;1.70;;
30553;SDS011;17335;50.720;7.452;2023-07-20T13:46:59;4.80;;;2.00;;
30553;SDS011;17335;50.720;7.452;2023-07-20T13:49:29;2.85;;;1.70;;
30553;SDS011;17335;50.720;7.452;2023-07-20T13:52:02;6.63;;;1.58;;
30553;SDS011;17335;50.720;7.452;2023-07-20T13:54:31;3.22;;;1.58;;
30553;SDS011;17335;50.720;7.452;2023-07-20T13:56:58;5.50;;;1.90;;
30553;SDS011;17335;50.720;7.452;2023-07-20T13:59:24;2.38;;;1.55;;
30553;SDS011;17335;50.720;7.452;2023-07-20T14:01:51;3.63;;;1.75;;
30553;SDS011;17335;50.720;7.452;2023-07-20T14:04:37;3.65;;;1.70;;
30553;SDS011;17335;50.720;7.452;2023-07-20T14:07:04;5.15;;;1.70;;
30553;SDS011;17335;50.720;7.452;2023-07-20T14:09:31;3.35;;;1.48;;
30553;SDS011;17335;50.720;7.452;2023-07-20T14:11:57;3.28;;;1.73;;
30553;SDS011;17335;50.720;7.452;2023-07-20T14:14:27;3.70;;;1.92;;
30553;SDS011;17335;50.720;7.452;2023-07-20T14:16:54;6.20;;;1.73;;
30553;SDS011;17335;50.720;7.452;2023-07-20T14:19:22;3.55;;;1.65;;
30553;SDS011;17335;50.720;7.452;2023-07-20T14:21:48;5.35;;;1.40;;
30553;SDS011;17335;50.720;7.452;2023-07-20T14:24:15;2.70;;;1.50;;
30553;SDS011;17335;50.720;7.452;2023-07-20T14:26:44;4.32;;;1.92;;
30553;SDS011;17335;50.720;7.452;2023-07-20T14:29:12;4.15;;;1.63;;
30553;SDS011;17335;50.720;7.452;2023-07-20T14:31:38;3.25;;;1.77;;
30553;SDS011;17335;50.720;7.452;2023-07-20T14:34:05;3.30;;;1.60;;
30553;SDS011;17335;50.720;7.452;2023-07-20T14:36:31;6.35;;;1.90;;
30553;SDS011;17335;50.720;7.452;2023-07-20T14:39:00;3.92;;;1.50;;
30553;SDS011;17335;50.720;7.452;2023-07-20T14:41:26;2.55;;;1.80;;
30553;SDS011;17335;50.720;7.452;2023-07-20T14:43:53;2.67;;;1.50;;
30553;SDS011;17335;50.720;7.452;2023-07-20T14:46:19;2.53;;;1.20;;
30553;SDS011;17335;50.720;7.452;2023-07-20T14:48:47;3.90;;;1.52;;
30553;SDS011;17335;50.720;7.452;2023-07-20T14:51:14;3.40;;;1.67;;
30553;SDS011;17335;50.720;7.452;2023-07-20T14:53:40;3.63;;;1.50;;
30553;SDS011;17335;50.720;7.452;2023-07-20T14:56:06;3.13;;;1.70;;
30553;SDS011;17335;50.720;7.452;2023-07-20T14:58:33;2.78;;;1.80;;
30553;SDS011;17335;50.720;7.452;2023-07-20T15:01:01;2.60;;;1.60;;
30553;SDS011;17335;50.720;7.452;2023-07-20T15:03:28;3.03;;;1.35;;
30553;SDS011;17335;50.720;7.452;2023-07-20T15:05:57;4.10;;;1.67;;
30553;SDS011;17335;50.720;7.452;2023-07-20T15:08:23;5.53;;;1.60;;
30553;SDS011;17335;50.720;7.452;2023-07-20T15:10:50;3.00;;;1.42;;
30553;SDS011;17335;50.720;7.452;2023-07-20T15:13:16;4.65;;;1.50;;
30553;SDS011;17335;50.720;7.452;2023-07-20T15:15:42;5.60;;;1.48;;